sensor_id;sensor_type;location;lat;lon;timestamp;P1;durP1;ratioP1;P2;durP2;ratioP2
21128;SDS011;10722;51.910;8.352;2023-07-28T00:01:04;36.97;;;23.92;;
21128;SDS011;10722;51.910;8.352;2023-07-28T00:03:50;38.80;;;24.40;;
21128;SDS011;10722;51.910;8.352;2023-07-28T00:06:35;40.45;;;25.73;;
21128;SDS011;10722;51.910;8.352;2023-07-28T00:09:20;47.33;;;26.35;;
21128;SDS011;10722;51.910;8.352;2023-07-28T00:12:05;42.35;;;25.92;;
21128;SDS011;10722;51.910;8.352;2023-07-28T00:14:50;46.03;;;27.55;;
21128;SDS011;10722;51.910;8.352;2023-07-28T00:17:35;47.20;;;28.02;;
21128;SDS011;10722;51.910;8.352;2023-07-28T00:20:21;44.33;;;27.42;;
21128;SDS011;10722;51.910;8.352;2023-07-28T00:23:06;51.08;;;29.38;;
21128;SDS011;10722;51.910;8.352;2023-07-28T00:25:51;49.25;;;26.90;;
21128;SDS011;10722;51.910;8.352;2023-07-28T00:28:36;47.35;;;27.92;;
21128;SDS011;10722;51.910;8.352;2023-07-28T00:31:21;44.55;;;25.65;;
21128;SDS011;10722;51.910;8.352;2023-07-28T00:34:06;45.00;;;26.98;;
21128;SDS011;10722;51.910;8.352;2023-07-28T00:36:51;43.90;;;25.75;;
21128;SDS011;10722;51.910;8.352;2023-07-28T00:39:36;43.90;;;25.92;;
21128;SDS011;10722;51.910;8.352;2023-07-28T00:42:21;43.78;;;25.65;;
21128;SDS011;10722;51.910;8.352;2023-07-28T00:45:06;46.17;;;25.27;;
21128;SDS011;10722;51.910;8.352;2023-07-28T00:47:52;38.72;;;22.73;;
21128;SDS011;10722;51.910;8.352;2023-07-28T00:50:37;37.60;;;23.13;;
21128;SDS011;10722;51.910;8.352;2023-07-28T00:53:23;37.05;;;22.58;;
21128;SDS011;10722;51.910;8.352;2023-07-28T00:56:09;35.00;;;22.05;;
21128;SDS011;10722;51.910;8.352;2023-07-28T00:58:56;37.25;;;21.05;;
21128;SDS011;10722;51.910;8.352;2023-07-28T01:01:41;31.15;;;18.83;;
21128;SDS011;10722;51.910;8.352;2023-07-28T01:04:27;32.53;;;19.42;;
21128;SDS011;10722;51.910;8.352;2023-07-28T01:07:17;28.30;;;17.17;;
21128;SDS011;10722;51.910;8.352;2023-07-28T01:10:30;26.60;;;15.88;;
21128;SDS011;10722;51.910;8.352;2023-07-28T01:13:17;26.80;;;16.05;;
21128;SDS011;10722;51.910;8.352;2023-07-28T01:16:01;28.45;;;15.93;;
21128;SDS011;10722;51.910;8.352;2023-07-28T01:18:47;30.95;;;15.73;;
21128;SDS011;10722;51.910;8.352;2023-07-28T01:21:33;28.30;;;15.50;;
21128;SDS011;10722;51.910;8.352;2023-07-28T01:27:08;28.00;;;15.27;;
21128;SDS011;10722;51.910;8.352;2023-07-28T01:29:53;28.73;;;14.98;;
21128;SDS011;10722;51.910;8.352;2023-07-28T01:32:39;25.55;;;14.02;;
21128;SDS011;10722;51.910;8.352;2023-07-28T01:35:25;26.98;;;13.48;;
21128;SDS011;10722;51.910;8.352;2023-07-28T01:38:11;27.23;;;12.88;;
21128;SDS011;10722;51.910;8.352;2023-07-28T01:40:56;24.02;;;12.60;;
21128;SDS011;10722;51.910;8.352;2023-07-28T01:43:41;25.05;;;12.27;;
21128;SDS011;10722;51.910;8.352;2023-07-28T01:46:26;24.55;;;12.70;;
21128;SDS011;10722;51.910;8.352;2023-07-28T01:49:11;25.30;;;12.15;;
21128;SDS011;10722;51.910;8.352;2023-07-28T01:51:57;24.02;;;12.50;;
21128;SDS011;10722;51.910;8.352;2023-07-28T01:54:45;23.67;;;11.90;;
21128;SDS011;10722;51.910;8.352;2023-07-28T01:57:32;26.15;;;12.70;;
21128;SDS011;10722;51.910;8.352;2023-07-28T02:00:18;24.27;;;13.23;;
21128;SDS011;10722;51.910;8.352;2023-07-28T02:03:03;25.73;;;13.60;;
21128;SDS011;10722;51.910;8.352;2023-07-28T02:05:49;25.35;;;13.50;;
21128;SDS011;10722;51.910;8.352;2023-07-28T02:08:34;27.00;;;14.15;;
21128;SDS011;10722;51.910;8.352;2023-07-28T02:11:19;26.02;;;14.52;;
21128;SDS011;10722;51.910;8.352;2023-07-28T02:14:04;21.25;;;13.23;;
21128;SDS011;10722;51.910;8.352;2023-07-28T02:16:49;24.33;;;14.15;;
21128;SDS011;10722;51.910;8.352;2023-07-28T02:19:34;26.70;;;14.38;;
21128;SDS011;10722;51.910;8.352;2023-07-28T02:22:19;26.33;;;14.75;;
21128;SDS011;10722;51.910;8.352;2023-07-28T02:25:05;27.38;;;15.57;;
21128;SDS011;10722;51.910;8.352;2023-07-28T02:27:50;26.85;;;15.75;;
21128;SDS011;10722;51.910;8.352;2023-07-28T02:30:35;26.77;;;16.23;;
21128;SDS011;10722;51.910;8.352;2023-07-28T02:33:21;26.92;;;15.93;;
21128;SDS011;10722;51.910;8.352;2023-07-28T02:36:06;26.33;;;15.90;;
21128;SDS011;10722;51.910;8.352;2023-07-28T02:38:51;25.85;;;16.15;;
21128;SDS011;10722;51.910;8.352;2023-07-28T02:41:36;27.65;;;16.15;;
21128;SDS011;10722;51.910;8.352;2023-07-28T02:44:21;32.13;;;17.17;;
21128;SDS011;10722;51.910;8.352;2023-07-28T02:47:06;29.00;;;17.48;;
21128;SDS011;10722;51.910;8.352;2023-07-28T02:49:52;28.30;;;17.92;;
21128;SDS011;10722;51.910;8.352;2023-07-28T02:52:37;28.85;;;17.48;;
21128;SDS011;10722;51.910;8.352;2023-07-28T02:55:22;32.05;;;18.33;;
21128;SDS011;10722;51.910;8.352;2023-07-28T02:58:06;32.40;;;18.10;;
21128;SDS011;10722;51.910;8.352;2023-07-28T03:00:51;31.38;;;18.35;;
21128;SDS011;10722;51.910;8.352;2023-07-28T03:03:37;32.15;;;18.40;;
21128;SDS011;10722;51.910;8.352;2023-07-28T03:06:22;36.70;;;20.42;;
21128;SDS011;10722;51.910;8.352;2023-07-28T03:09:07;31.58;;;19.55;;
21128;SDS011;10722;51.910;8.352;2023-07-28T03:11:52;34.88;;;20.70;;
21128;SDS011;10722;51.910;8.352;2023-07-28T03:14:37;37.72;;;21.33;;
21128;SDS011;10722;51.910;8.352;2023-07-28T03:17:22;37.17;;;21.58;;
21128;SDS011;10722;51.910;8.352;2023-07-28T03:20:07;37.58;;;22.52;;
21128;SDS011;10722;51.910;8.352;2023-07-28T03:22:52;39.03;;;22.55;;
21128;SDS011;10722;51.910;8.352;2023-07-28T03:25:37;42.13;;;23.48;;
21128;SDS011;10722;51.910;8.352;2023-07-28T03:28:23;41.42;;;24.08;;
21128;SDS011;10722;51.910;8.352;2023-07-28T03:31:07;43.15;;;23.52;;
21128;SDS011;10722;51.910;8.352;2023-07-28T03:33:52;43.75;;;24.38;;
21128;SDS011;10722;51.910;8.352;2023-07-28T03:36:37;39.53;;;24.15;;
21128;SDS011;10722;51.910;8.352;2023-07-28T03:39:22;40.63;;;24.25;;
21128;SDS011;10722;51.910;8.352;2023-07-28T03:42:07;38.85;;;24.05;;
21128;SDS011;10722;51.910;8.352;2023-07-28T03:44:53;37.47;;;23.13;;
21128;SDS011;10722;51.910;8.352;2023-07-28T03:47:38;36.45;;;22.58;;
21128;SDS011;10722;51.910;8.352;2023-07-28T03:50:23;37.72;;;22.45;;
21128;SDS011;10722;51.910;8.352;2023-07-28T03:53:09;35.95;;;22.33;;
21128;SDS011;10722;51.910;8.352;2023-07-28T03:55:53;35.78;;;22.73;;
21128;SDS011;10722;51.910;8.352;2023-07-28T03:58:38;34.47;;;22.05;;
21128;SDS011;10722;51.910;8.352;2023-07-28T04:01:23;34.70;;;22.60;;
21128;SDS011;10722;51.910;8.352;2023-07-28T04:04:09;35.65;;;22.67;;
21128;SDS011;10722;51.910;8.352;2023-07-28T04:06:54;33.63;;;21.73;;
21128;SDS011;10722;51.910;8.352;2023-07-28T04:09:39;35.58;;;20.63;;
21128;SDS011;10722;51.910;8.352;2023-07-28T04:12:24;33.55;;;20.95;;
21128;SDS011;10722;51.910;8.352;2023-07-28T04:15:09;32.53;;;20.23;;
21128;SDS011;10722;51.910;8.352;2023-07-28T04:17:55;29.63;;;18.55;;
21128;SDS011;10722;51.910;8.352;2023-07-28T04:20:40;27.58;;;18.15;;
21128;SDS011;10722;51.910;8.352;2023-07-28T04:23:25;27.70;;;17.40;;
21128;SDS011;10722;51.910;8.352;2023-07-28T04:26:10;28.92;;;18.13;;
21128;SDS011;10722;51.910;8.352;2023-07-28T04:28:55;27.38;;;17.15;;
21128;SDS011;10722;51.910;8.352;2023-07-28T04:31:40;28.25;;;17.90;;
21128;SDS011;10722;51.910;8.352;2023-07-28T04:34:25;27.02;;;17.75;;
21128;SDS011;10722;51.910;8.352;2023-07-28T04:37:11;28.58;;;18.27;;
21128;SDS011;10722;51.910;8.352;2023-07-28T04:39:56;27.30;;;18.15;;
21128;SDS011;10722;51.910;8.352;2023-07-28T04:42:41;28.63;;;18.58;;
21128;SDS011;10722;51.910;8.352;2023-07-28T04:45:25;27.77;;;17.60;;
21128;SDS011;10722;51.910;8.352;2023-07-28T04:48:10;29.08;;;18.70;;
21128;SDS011;10722;51.910;8.352;2023-07-28T04:50:56;29.50;;;18.05;;
21128;SDS011;10722;51.910;8.352;2023-07-28T04:53:41;29.10;;;17.77;;
21128;SDS011;10722;51.910;8.352;2023-07-28T04:56:26;30.50;;;18.00;;
21128;SDS011;10722;51.910;8.352;2023-07-28T04:59:11;31.23;;;19.02;;
21128;SDS011;10722;51.910;8.352;2023-07-28T05:01:56;29.23;;;18.98;;
21128;SDS011;10722;51.910;8.352;2023-07-28T05:04:41;31.63;;;19.13;;
21128;SDS011;10722;51.910;8.352;2023-07-28T05:07:26;32.50;;;18.88;;
21128;SDS011;10722;51.910;8.352;2023-07-28T05:10:12;31.58;;;18.85;;
21128;SDS011;10722;51.910;8.352;2023-07-28T05:12:57;30.40;;;18.33;;
21128;SDS011;10722;51.910;8.352;2023-07-28T05:15:42;29.20;;;18.67;;
21128;SDS011;10722;51.910;8.352;2023-07-28T05:18:27;30.38;;;19.00;;
21128;SDS011;10722;51.910;8.352;2023-07-28T05:21:12;27.88;;;17.17;;
21128;SDS011;10722;51.910;8.352;2023-07-28T05:23:58;28.50;;;18.48;;
21128;SDS011;10722;51.910;8.352;2023-07-28T05:26:43;28.92;;;18.38;;
21128;SDS011;10722;51.910;8.352;2023-07-28T05:29:28;29.67;;;18.33;;
21128;SDS011;10722;51.910;8.352;2023-07-28T05:32:13;31.85;;;17.77;;
21128;SDS011;10722;51.910;8.352;2023-07-28T05:34:58;28.00;;;17.77;;
21128;SDS011;10722;51.910;8.352;2023-07-28T05:37:44;28.45;;;17.92;;
21128;SDS011;10722;51.910;8.352;2023-07-28T05:40:29;27.15;;;17.70;;
21128;SDS011;10722;51.910;8.352;2023-07-28T05:43:14;26.55;;;16.55;;
21128;SDS011;10722;51.910;8.352;2023-07-28T05:45:59;26.45;;;17.55;;
21128;SDS011;10722;51.910;8.352;2023-07-28T05:48:46;28.10;;;17.42;;
21128;SDS011;10722;51.910;8.352;2023-07-28T05:51:31;26.38;;;17.02;;
21128;SDS011;10722;51.910;8.352;2023-07-28T05:54:16;26.05;;;17.30;;
21128;SDS011;10722;51.910;8.352;2023-07-28T05:57:01;30.50;;;18.15;;
21128;SDS011;10722;51.910;8.352;2023-07-28T05:59:47;27.83;;;18.38;;
21128;SDS011;10722;51.910;8.352;2023-07-28T06:02:32;28.73;;;18.35;;
21128;SDS011;10722;51.910;8.352;2023-07-28T06:05:17;29.50;;;19.95;;
21128;SDS011;10722;51.910;8.352;2023-07-28T06:08:03;29.85;;;20.55;;
21128;SDS011;10722;51.910;8.352;2023-07-28T06:10:48;31.83;;;21.08;;
21128;SDS011;10722;51.910;8.352;2023-07-28T06:13:33;29.25;;;20.52;;
21128;SDS011;10722;51.910;8.352;2023-07-28T06:16:18;28.80;;;20.63;;
21128;SDS011;10722;51.910;8.352;2023-07-28T06:19:03;31.75;;;20.65;;
21128;SDS011;10722;51.910;8.352;2023-07-28T06:21:48;31.73;;;21.48;;
21128;SDS011;10722;51.910;8.352;2023-07-28T06:24:33;31.02;;;22.02;;
21128;SDS011;10722;51.910;8.352;2023-07-28T06:27:18;30.08;;;21.25;;
21128;SDS011;10722;51.910;8.352;2023-07-28T06:30:03;32.75;;;21.10;;
21128;SDS011;10722;51.910;8.352;2023-07-28T06:32:48;29.98;;;20.88;;
21128;SDS011;10722;51.910;8.352;2023-07-28T06:35:34;32.15;;;21.55;;
21128;SDS011;10722;51.910;8.352;2023-07-28T06:38:19;30.67;;;20.60;;
21128;SDS011;10722;51.910;8.352;2023-07-28T06:41:05;30.20;;;20.58;;
21128;SDS011;10722;51.910;8.352;2023-07-28T06:43:49;29.80;;;20.55;;
21128;SDS011;10722;51.910;8.352;2023-07-28T06:46:35;28.42;;;20.13;;
21128;SDS011;10722;51.910;8.352;2023-07-28T06:49:20;27.00;;;19.75;;
21128;SDS011;10722;51.910;8.352;2023-07-28T06:52:05;30.35;;;20.88;;
21128;SDS011;10722;51.910;8.352;2023-07-28T06:54:52;29.38;;;19.98;;
21128;SDS011;10722;51.910;8.352;2023-07-28T06:57:37;26.98;;;19.30;;
21128;SDS011;10722;51.910;8.352;2023-07-28T07:00:25;27.52;;;20.50;;
21128;SDS011;10722;51.910;8.352;2023-07-28T07:03:10;29.77;;;20.60;;
21128;SDS011;10722;51.910;8.352;2023-07-28T07:05:56;28.80;;;20.58;;
21128;SDS011;10722;51.910;8.352;2023-07-28T07:08:40;26.73;;;19.80;;
21128;SDS011;10722;51.910;8.352;2023-07-28T07:11:25;29.35;;;20.23;;
21128;SDS011;10722;51.910;8.352;2023-07-28T07:14:10;26.98;;;18.77;;
21128;SDS011;10722;51.910;8.352;2023-07-28T07:16:56;26.48;;;19.02;;
21128;SDS011;10722;51.910;8.352;2023-07-28T07:19:41;25.23;;;17.73;;
21128;SDS011;10722;51.910;8.352;2023-07-28T07:22:26;28.33;;;19.65;;
21128;SDS011;10722;51.910;8.352;2023-07-28T07:25:11;25.25;;;18.40;;
21128;SDS011;10722;51.910;8.352;2023-07-28T07:27:56;26.90;;;18.60;;
21128;SDS011;10722;51.910;8.352;2023-07-28T07:30:42;28.02;;;19.15;;
21128;SDS011;10722;51.910;8.352;2023-07-28T07:33:27;25.38;;;18.35;;
21128;SDS011;10722;51.910;8.352;2023-07-28T07:36:12;26.73;;;18.10;;
21128;SDS011;10722;51.910;8.352;2023-07-28T07:38:58;25.02;;;17.67;;
21128;SDS011;10722;51.910;8.352;2023-07-28T07:41:43;27.00;;;17.67;;
21128;SDS011;10722;51.910;8.352;2023-07-28T07:44:31;29.23;;;18.23;;
21128;SDS011;10722;51.910;8.352;2023-07-28T07:47:16;27.52;;;17.00;;
21128;SDS011;10722;51.910;8.352;2023-07-28T07:50:02;24.38;;;16.58;;
21128;SDS011;10722;51.910;8.352;2023-07-28T07:52:54;25.60;;;17.17;;
21128;SDS011;10722;51.910;8.352;2023-07-28T07:55:39;23.45;;;15.85;;
21128;SDS011;10722;51.910;8.352;2023-07-28T07:58:25;26.63;;;16.80;;
21128;SDS011;10722;51.910;8.352;2023-07-28T08:01:11;23.88;;;15.68;;
21128;SDS011;10722;51.910;8.352;2023-07-28T08:03:57;23.67;;;16.02;;
21128;SDS011;10722;51.910;8.352;2023-07-28T08:06:43;24.05;;;15.52;;
21128;SDS011;10722;51.910;8.352;2023-07-28T08:09:29;23.52;;;15.40;;
21128;SDS011;10722;51.910;8.352;2023-07-28T08:12:15;22.63;;;14.63;;
21128;SDS011;10722;51.910;8.352;2023-07-28T08:15:01;22.48;;;13.13;;
21128;SDS011;10722;51.910;8.352;2023-07-28T08:17:46;19.27;;;12.98;;
21128;SDS011;10722;51.910;8.352;2023-07-28T08:20:32;20.23;;;13.90;;
21128;SDS011;10722;51.910;8.352;2023-07-28T08:23:17;19.73;;;13.90;;
21128;SDS011;10722;51.910;8.352;2023-07-28T08:26:03;20.42;;;13.45;;
21128;SDS011;10722;51.910;8.352;2023-07-28T08:28:49;24.08;;;14.40;;
21128;SDS011;10722;51.910;8.352;2023-07-28T08:31:35;20.58;;;13.65;;
21128;SDS011;10722;51.910;8.352;2023-07-28T08:34:20;22.08;;;13.80;;
21128;SDS011;10722;51.910;8.352;2023-07-28T08:37:06;20.00;;;13.23;;
21128;SDS011;10722;51.910;8.352;2023-07-28T08:39:52;20.95;;;13.18;;
21128;SDS011;10722;51.910;8.352;2023-07-28T08:42:38;19.30;;;11.90;;
21128;SDS011;10722;51.910;8.352;2023-07-28T08:45:24;16.25;;;9.98;;
21128;SDS011;10722;51.910;8.352;2023-07-28T08:48:10;14.98;;;8.18;;
21128;SDS011;10722;51.910;8.352;2023-07-28T08:50:56;13.85;;;6.95;;
21128;SDS011;10722;51.910;8.352;2023-07-28T08:53:42;15.48;;;7.75;;
21128;SDS011;10722;51.910;8.352;2023-07-28T08:56:27;17.50;;;9.82;;
21128;SDS011;10722;51.910;8.352;2023-07-28T08:59:18;18.85;;;10.88;;
21128;SDS011;10722;51.910;8.352;2023-07-28T09:02:06;16.27;;;10.27;;
21128;SDS011;10722;51.910;8.352;2023-07-28T09:04:54;17.33;;;9.88;;
21128;SDS011;10722;51.910;8.352;2023-07-28T09:07:39;16.25;;;9.73;;
21128;SDS011;10722;51.910;8.352;2023-07-28T09:10:43;17.63;;;10.88;;
21128;SDS011;10722;51.910;8.352;2023-07-28T09:13:40;23.92;;;17.10;;
21128;SDS011;10722;51.910;8.352;2023-07-28T09:16:26;18.13;;;11.15;;
21128;SDS011;10722;51.910;8.352;2023-07-28T09:19:12;20.05;;;12.10;;
21128;SDS011;10722;51.910;8.352;2023-07-28T09:21:59;18.80;;;11.05;;
21128;SDS011;10722;51.910;8.352;2023-07-28T09:24:46;17.85;;;10.85;;
21128;SDS011;10722;51.910;8.352;2023-07-28T09:27:32;18.02;;;10.38;;
21128;SDS011;10722;51.910;8.352;2023-07-28T09:30:18;15.98;;;9.30;;
21128;SDS011;10722;51.910;8.352;2023-07-28T09:33:04;15.25;;;8.32;;
21128;SDS011;10722;51.910;8.352;2023-07-28T09:35:50;14.80;;;7.60;;
21128;SDS011;10722;51.910;8.352;2023-07-28T09:38:36;14.52;;;7.65;;
21128;SDS011;10722;51.910;8.352;2023-07-28T09:41:23;13.65;;;6.70;;
21128;SDS011;10722;51.910;8.352;2023-07-28T09:44:10;16.85;;;6.97;;
21128;SDS011;10722;51.910;8.352;2023-07-28T09:46:57;12.73;;;6.32;;
21128;SDS011;10722;51.910;8.352;2023-07-28T09:49:46;15.40;;;7.72;;
21128;SDS011;10722;51.910;8.352;2023-07-28T09:52:42;16.80;;;8.80;;
21128;SDS011;10722;51.910;8.352;2023-07-28T09:55:31;14.15;;;8.23;;
21128;SDS011;10722;51.910;8.352;2023-07-28T09:58:19;15.55;;;8.63;;
21128;SDS011;10722;51.910;8.352;2023-07-28T10:01:09;14.48;;;7.97;;
21128;SDS011;10722;51.910;8.352;2023-07-28T10:03:55;14.98;;;7.80;;
21128;SDS011;10722;51.910;8.352;2023-07-28T10:06:41;13.68;;;7.93;;
21128;SDS011;10722;51.910;8.352;2023-07-28T10:09:27;15.90;;;7.90;;
21128;SDS011;10722;51.910;8.352;2023-07-28T10:12:26;15.45;;;8.07;;
21128;SDS011;10722;51.910;8.352;2023-07-28T10:15:12;15.90;;;8.23;;
21128;SDS011;10722;51.910;8.352;2023-07-28T10:17:59;14.43;;;7.57;;
21128;SDS011;10722;51.910;8.352;2023-07-28T10:20:46;14.15;;;7.90;;
21128;SDS011;10722;51.910;8.352;2023-07-28T10:23:33;14.07;;;7.40;;
21128;SDS011;10722;51.910;8.352;2023-07-28T10:26:30;15.27;;;8.48;;
21128;SDS011;10722;51.910;8.352;2023-07-28T10:29:16;16.05;;;9.00;;
21128;SDS011;10722;51.910;8.352;2023-07-28T10:32:01;16.65;;;8.73;;
21128;SDS011;10722;51.910;8.352;2023-07-28T10:34:58;17.23;;;10.85;;
21128;SDS011;10722;51.910;8.352;2023-07-28T10:37:44;27.27;;;18.50;;
21128;SDS011;10722;51.910;8.352;2023-07-28T10:43:19;30.75;;;21.02;;
21128;SDS011;10722;51.910;8.352;2023-07-28T10:46:04;110.68;;;83.45;;
21128;SDS011;10722;51.910;8.352;2023-07-28T10:48:50;35.72;;;25.10;;
21128;SDS011;10722;51.910;8.352;2023-07-28T10:51:35;36.03;;;26.08;;
21128;SDS011;10722;51.910;8.352;2023-07-28T10:54:21;38.42;;;26.67;;
21128;SDS011;10722;51.910;8.352;2023-07-28T10:57:06;39.90;;;26.48;;
21128;SDS011;10722;51.910;8.352;2023-07-28T10:59:51;40.33;;;28.08;;
21128;SDS011;10722;51.910;8.352;2023-07-28T11:02:37;38.55;;;27.63;;
21128;SDS011;10722;51.910;8.352;2023-07-28T11:05:27;36.83;;;27.92;;
21128;SDS011;10722;51.910;8.352;2023-07-28T11:08:13;38.63;;;28.08;;
21128;SDS011;10722;51.910;8.352;2023-07-28T11:10:59;39.70;;;28.67;;
21128;SDS011;10722;51.910;8.352;2023-07-28T11:13:44;35.95;;;27.05;;
21128;SDS011;10722;51.910;8.352;2023-07-28T11:16:28;32.90;;;24.63;;
21128;SDS011;10722;51.910;8.352;2023-07-28T11:19:14;32.10;;;21.90;;
21128;SDS011;10722;51.910;8.352;2023-07-28T11:21:59;32.05;;;22.83;;
21128;SDS011;10722;51.910;8.352;2023-07-28T11:24:44;30.15;;;22.50;;
21128;SDS011;10722;51.910;8.352;2023-07-28T11:27:30;30.00;;;22.02;;
21128;SDS011;10722;51.910;8.352;2023-07-28T11:30:17;29.50;;;21.15;;
21128;SDS011;10722;51.910;8.352;2023-07-28T11:33:03;27.13;;;20.75;;
21128;SDS011;10722;51.910;8.352;2023-07-28T11:35:49;28.38;;;21.75;;
21128;SDS011;10722;51.910;8.352;2023-07-28T11:38:34;27.98;;;21.00;;
21128;SDS011;10722;51.910;8.352;2023-07-28T11:41:21;28.25;;;20.95;;
21128;SDS011;10722;51.910;8.352;2023-07-28T11:44:07;26.35;;;20.02;;
21128;SDS011;10722;51.910;8.352;2023-07-28T11:46:53;23.52;;;17.00;;
21128;SDS011;10722;51.910;8.352;2023-07-28T11:49:45;24.15;;;18.13;;
21128;SDS011;10722;51.910;8.352;2023-07-28T11:52:34;24.20;;;17.35;;
21128;SDS011;10722;51.910;8.352;2023-07-28T11:55:21;23.67;;;17.05;;
21128;SDS011;10722;51.910;8.352;2023-07-28T11:58:06;22.17;;;16.38;;
21128;SDS011;10722;51.910;8.352;2023-07-28T12:00:52;23.13;;;15.80;;
21128;SDS011;10722;51.910;8.352;2023-07-28T12:03:37;24.58;;;15.75;;
21128;SDS011;10722;51.910;8.352;2023-07-28T12:06:23;20.85;;;14.45;;
21128;SDS011;10722;51.910;8.352;2023-07-28T12:09:11;18.40;;;12.77;;
21128;SDS011;10722;51.910;8.352;2023-07-28T12:11:59;18.80;;;12.63;;
21128;SDS011;10722;51.910;8.352;2023-07-28T12:14:47;17.25;;;11.93;;
21128;SDS011;10722;51.910;8.352;2023-07-28T12:18:12;17.95;;;11.75;;
21128;SDS011;10722;51.910;8.352;2023-07-28T12:21:01;18.48;;;8.77;;
21128;SDS011;10722;51.910;8.352;2023-07-28T12:23:46;12.23;;;5.85;;
21128;SDS011;10722;51.910;8.352;2023-07-28T12:26:34;13.85;;;7.00;;
21128;SDS011;10722;51.910;8.352;2023-07-28T12:29:24;13.50;;;7.10;;
21128;SDS011;10722;51.910;8.352;2023-07-28T12:32:12;14.27;;;7.45;;
21128;SDS011;10722;51.910;8.352;2023-07-28T12:35:18;14.23;;;7.18;;
21128;SDS011;10722;51.910;8.352;2023-07-28T12:38:04;13.30;;;6.10;;
21128;SDS011;10722;51.910;8.352;2023-07-28T12:40:53;13.52;;;5.90;;
21128;SDS011;10722;51.910;8.352;2023-07-28T12:43:41;15.68;;;6.57;;
21128;SDS011;10722;51.910;8.352;2023-07-28T12:46:29;14.45;;;6.47;;
21128;SDS011;10722;51.910;8.352;2023-07-28T12:49:14;13.80;;;5.95;;
21128;SDS011;10722;51.910;8.352;2023-07-28T12:52:04;12.60;;;5.95;;
21128;SDS011;10722;51.910;8.352;2023-07-28T12:54:51;16.10;;;7.05;;
21128;SDS011;10722;51.910;8.352;2023-07-28T12:57:59;12.57;;;5.85;;
21128;SDS011;10722;51.910;8.352;2023-07-28T13:00:44;11.93;;;5.95;;
21128;SDS011;10722;51.910;8.352;2023-07-28T13:03:33;12.13;;;5.57;;
21128;SDS011;10722;51.910;8.352;2023-07-28T13:06:19;12.05;;;5.97;;
21128;SDS011;10722;51.910;8.352;2023-07-28T13:09:04;12.30;;;6.15;;
21128;SDS011;10722;51.910;8.352;2023-07-28T13:11:52;13.70;;;6.53;;
21128;SDS011;10722;51.910;8.352;2023-07-28T13:14:40;15.73;;;7.38;;
21128;SDS011;10722;51.910;8.352;2023-07-28T13:17:25;12.80;;;7.30;;
21128;SDS011;10722;51.910;8.352;2023-07-28T13:20:11;13.82;;;7.40;;
21128;SDS011;10722;51.910;8.352;2023-07-28T13:22:56;13.95;;;7.05;;
21128;SDS011;10722;51.910;8.352;2023-07-28T13:25:40;13.25;;;6.50;;
21128;SDS011;10722;51.910;8.352;2023-07-28T13:28:25;14.00;;;6.88;;
21128;SDS011;10722;51.910;8.352;2023-07-28T13:31:10;13.80;;;6.90;;
21128;SDS011;10722;51.910;8.352;2023-07-28T13:33:56;13.52;;;6.85;;
21128;SDS011;10722;51.910;8.352;2023-07-28T13:36:43;13.60;;;7.10;;
21128;SDS011;10722;51.910;8.352;2023-07-28T13:39:28;12.90;;;7.15;;
21128;SDS011;10722;51.910;8.352;2023-07-28T13:42:13;13.48;;;7.03;;
21128;SDS011;10722;51.910;8.352;2023-07-28T13:44:58;13.20;;;7.38;;
21128;SDS011;10722;51.910;8.352;2023-07-28T13:47:43;13.55;;;7.07;;
21128;SDS011;10722;51.910;8.352;2023-07-28T13:50:28;12.98;;;7.07;;
21128;SDS011;10722;51.910;8.352;2023-07-28T13:53:17;11.63;;;5.90;;
21128;SDS011;10722;51.910;8.352;2023-07-28T13:56:05;13.18;;;6.50;;
21128;SDS011;10722;51.910;8.352;2023-07-28T13:59:05;10.75;;;5.60;;
21128;SDS011;10722;51.910;8.352;2023-07-28T14:01:50;12.35;;;6.10;;
21128;SDS011;10722;51.910;8.352;2023-07-28T14:04:36;12.75;;;6.10;;
21128;SDS011;10722;51.910;8.352;2023-07-28T14:07:20;12.82;;;6.30;;
21128;SDS011;10722;51.910;8.352;2023-07-28T14:10:06;12.85;;;6.43;;
21128;SDS011;10722;51.910;8.352;2023-07-28T14:12:52;12.07;;;6.30;;
21128;SDS011;10722;51.910;8.352;2023-07-28T14:15:37;12.35;;;6.13;;
21128;SDS011;10722;51.910;8.352;2023-07-28T14:18:25;11.70;;;6.07;;
21128;SDS011;10722;51.910;8.352;2023-07-28T14:21:10;11.45;;;6.00;;
21128;SDS011;10722;51.910;8.352;2023-07-28T14:23:55;15.07;;;8.00;;
21128;SDS011;10722;51.910;8.352;2023-07-28T14:26:41;12.77;;;6.20;;
21128;SDS011;10722;51.910;8.352;2023-07-28T14:29:26;14.13;;;7.38;;
21128;SDS011;10722;51.910;8.352;2023-07-28T14:32:11;12.63;;;6.78;;
21128;SDS011;10722;51.910;8.352;2023-07-28T14:34:57;11.50;;;6.28;;
21128;SDS011;10722;51.910;8.352;2023-07-28T14:37:41;11.40;;;5.82;;
21128;SDS011;10722;51.910;8.352;2023-07-28T14:40:26;10.38;;;4.95;;
21128;SDS011;10722;51.910;8.352;2023-07-28T14:43:12;9.43;;;4.57;;
21128;SDS011;10722;51.910;8.352;2023-07-28T14:45:57;10.52;;;5.13;;
21128;SDS011;10722;51.910;8.352;2023-07-28T14:48:42;10.43;;;4.65;;
21128;SDS011;10722;51.910;8.352;2023-07-28T14:51:27;11.25;;;5.00;;
21128;SDS011;10722;51.910;8.352;2023-07-28T14:54:12;9.02;;;4.50;;
21128;SDS011;10722;51.910;8.352;2023-07-28T14:56:57;10.25;;;4.90;;
21128;SDS011;10722;51.910;8.352;2023-07-28T14:59:43;9.90;;;4.75;;
21128;SDS011;10722;51.910;8.352;2023-07-28T15:02:28;8.75;;;4.25;;
21128;SDS011;10722;51.910;8.352;2023-07-28T15:05:13;8.90;;;4.20;;
21128;SDS011;10722;51.910;8.352;2023-07-28T15:07:58;8.93;;;4.30;;
21128;SDS011;10722;51.910;8.352;2023-07-28T15:10:43;8.43;;;3.90;;
21128;SDS011;10722;51.910;8.352;2023-07-28T15:13:28;7.90;;;3.58;;
21128;SDS011;10722;51.910;8.352;2023-07-28T15:16:14;8.35;;;3.83;;
21128;SDS011;10722;51.910;8.352;2023-07-28T15:18:59;8.95;;;4.00;;
21128;SDS011;10722;51.910;8.352;2023-07-28T15:21:44;11.60;;;4.10;;
21128;SDS011;10722;51.910;8.352;2023-07-28T15:24:32;8.32;;;3.90;;
21128;SDS011;10722;51.910;8.352;2023-07-28T15:27:17;8.20;;;3.70;;
21128;SDS011;10722;51.910;8.352;2023-07-28T15:30:02;8.98;;;4.07;;
21128;SDS011;10722;51.910;8.352;2023-07-28T15:32:48;8.93;;;4.40;;
21128;SDS011;10722;51.910;8.352;2023-07-28T15:35:34;9.20;;;4.30;;
21128;SDS011;10722;51.910;8.352;2023-07-28T15:38:19;9.23;;;4.20;;
21128;SDS011;10722;51.910;8.352;2023-07-28T15:41:04;9.10;;;4.10;;
21128;SDS011;10722;51.910;8.352;2023-07-28T15:43:49;9.20;;;4.07;;
21128;SDS011;10722;51.910;8.352;2023-07-28T15:46:34;9.00;;;4.22;;
21128;SDS011;10722;51.910;8.352;2023-07-28T15:49:19;7.38;;;3.42;;
21128;SDS011;10722;51.910;8.352;2023-07-28T15:52:04;7.22;;;3.50;;
21128;SDS011;10722;51.910;8.352;2023-07-28T15:54:50;6.18;;;3.35;;
21128;SDS011;10722;51.910;8.352;2023-07-28T15:57:35;6.03;;;3.28;;
21128;SDS011;10722;51.910;8.352;2023-07-28T16:00:20;8.75;;;3.60;;
21128;SDS011;10722;51.910;8.352;2023-07-28T16:03:05;7.15;;;3.33;;
21128;SDS011;10722;51.910;8.352;2023-07-28T16:05:51;7.35;;;3.22;;
21128;SDS011;10722;51.910;8.352;2023-07-28T16:08:36;6.18;;;3.10;;
21128;SDS011;10722;51.910;8.352;2023-07-28T16:11:22;7.57;;;3.53;;
21128;SDS011;10722;51.910;8.352;2023-07-28T16:14:07;6.55;;;3.13;;
21128;SDS011;10722;51.910;8.352;2023-07-28T16:16:52;6.53;;;3.00;;
21128;SDS011;10722;51.910;8.352;2023-07-28T16:19:37;7.47;;;2.90;;
21128;SDS011;10722;51.910;8.352;2023-07-28T16:22:22;6.93;;;2.72;;